createdAt,value
2023-05-16T00:00:15.063Z,19.67
2023-05-16T00:02:42.110Z,20.10
2023-05-16T00:05:10.597Z,16.35
2023-05-16T00:07:37.099Z,19.77
2023-05-16T00:10:03.635Z,20.83
2023-05-16T00:12:30.188Z,22.05
2023-05-16T00:14:57.000Z,23.73
2023-05-16T00:17:23.818Z,21.90
2023-05-16T00:19:53.996Z,22.60
2023-05-16T00:22:21.058Z,20.42
2023-05-16T00:24:47.454Z,22.83
2023-05-16T00:27:13.894Z,20.25
2023-05-16T00:29:40.431Z,22.17
2023-05-16T00:32:08.748Z,26.35
2023-05-16T00:34:35.766Z,26.17
2023-05-16T00:37:02.379Z,24.30
2023-05-16T00:39:29.100Z,24.77
2023-05-16T00:41:57.525Z,24.60
2023-05-16T00:44:24.434Z,25.75
2023-05-16T00:46:50.960Z,28.65
2023-05-16T00:49:17.529Z,25.45
2023-05-16T00:51:44.278Z,25.17
2023-05-16T00:54:10.742Z,25.67
2023-05-16T00:56:37.265Z,27.25
2023-05-16T00:59:04.032Z,29.35
2023-05-16T01:01:30.575Z,26.80
2023-05-16T01:03:57.162Z,26.80
2023-05-16T01:06:23.765Z,28.48
2023-05-16T01:08:50.851Z,32.05
2023-05-16T01:11:36.482Z,29.83
2023-05-16T01:14:12.002Z,28.70
2023-05-16T01:16:58.552Z,32.33
2023-05-16T01:19:38.331Z,30.20
2023-05-16T01:22:32.009Z,32.20
2023-05-16T01:25:26.789Z,30.70
2023-05-16T01:27:53.792Z,31.08
2023-05-16T01:30:22.302Z,31.48
2023-05-16T01:32:48.902Z,33.22
2023-05-16T01:35:17.060Z,32.67
2023-05-16T01:37:50.282Z,32.25
2023-05-16T01:40:26.846Z,30.13
2023-05-16T01:42:55.469Z,30.90
2023-05-16T01:45:29.719Z,32.22
2023-05-16T01:48:05.537Z,35.88
2023-05-16T01:50:34.604Z,35.03
2023-05-16T01:53:06.829Z,30.80
2023-05-16T01:55:44.392Z,33.97
2023-05-16T01:58:11.454Z,32.13
2023-05-16T02:00:38.002Z,36.35
2023-05-16T02:03:04.720Z,31.63
2023-05-16T02:05:31.725Z,32.20
2023-05-16T02:07:59.507Z,33.15
2023-05-16T02:10:26.958Z,31.60
2023-05-16T02:12:53.497Z,31.38
2023-05-16T02:15:20.014Z,34.72
2023-05-16T02:17:47.218Z,31.50
2023-05-16T02:22:47.244Z,34.40
2023-05-16T02:25:15.257Z,30.75
2023-05-16T02:27:43.069Z,33.65
2023-05-16T02:30:11.838Z,33.53
2023-05-16T02:32:39.669Z,36.50
2023-05-16T02:35:06.836Z,30.73
2023-05-16T02:37:33.493Z,30.45
2023-05-16T02:40:00.025Z,31.15
2023-05-16T02:42:27.706Z,30.85
2023-05-16T02:44:54.149Z,29.70
2023-05-16T02:47:20.571Z,29.35
2023-05-16T02:49:47.057Z,29.90
2023-05-16T02:52:13.492Z,32.35
2023-05-16T02:54:40.019Z,34.70
2023-05-16T02:57:06.432Z,31.20
2023-05-16T02:59:32.825Z,30.88
2023-05-16T03:01:59.712Z,31.25
2023-05-16T03:04:26.231Z,29.30
2023-05-16T03:06:53.865Z,30.15
2023-05-16T03:09:20.297Z,31.40
2023-05-16T03:11:46.956Z,28.15
2023-05-16T03:14:13.420Z,28.13
2023-05-16T03:16:41.576Z,29.10
2023-05-16T03:19:08.055Z,33.03
2023-05-16T03:21:34.509Z,32.85
2023-05-16T03:24:02.924Z,31.38
2023-05-16T03:26:29.428Z,32.80
2023-05-16T03:28:56.115Z,32.95
2023-05-16T03:31:22.645Z,33.00
2023-05-16T03:33:49.232Z,31.85
2023-05-16T03:36:15.693Z,32.38
2023-05-16T03:38:42.134Z,31.63
2023-05-16T03:41:08.659Z,32.90
2023-05-16T03:43:35.116Z,30.02
2023-05-16T03:46:02.377Z,30.75
2023-05-16T03:48:28.853Z,31.70
2023-05-16T03:50:55.567Z,31.75
2023-05-16T03:53:22.049Z,31.17
2023-05-16T03:55:48.962Z,30.98
2023-05-16T03:58:16.485Z,30.35
2023-05-16T04:00:43.151Z,31.00
2023-05-16T04:03:09.743Z,33.72
2023-05-16T04:05:36.449Z,30.63
2023-05-16T04:08:02.944Z,30.73
2023-05-16T04:10:29.414Z,29.85
2023-05-16T04:12:55.951Z,32.40
2023-05-16T04:15:22.423Z,28.10
2023-05-16T04:17:48.965Z,26.42
2023-05-16T04:20:15.727Z,28.80
2023-05-16T04:22:42.476Z,28.38
2023-05-16T04:25:09.380Z,28.08
2023-05-16T04:27:36.055Z,27.95
2023-05-16T04:30:02.558Z,31.20
2023-05-16T04:32:29.075Z,29.15
2023-05-16T04:34:55.639Z,29.50
2023-05-16T04:37:22.346Z,29.58
2023-05-16T04:39:48.875Z,26.27
2023-05-16T04:42:16.300Z,29.50
2023-05-16T04:44:43.945Z,28.27
2023-05-16T04:47:10.350Z,26.67
2023-05-16T04:49:36.782Z,27.38
2023-05-16T04:52:03.317Z,30.27
2023-05-16T04:54:29.750Z,28.30
2023-05-16T04:56:57.283Z,28.88
2023-05-16T04:59:23.766Z,28.30
2023-05-16T05:01:50.353Z,26.90
2023-05-16T05:04:17.676Z,27.55
2023-05-16T05:06:44.107Z,27.42
2023-05-16T05:09:10.944Z,31.40
2023-05-16T05:11:37.380Z,29.80
2023-05-16T05:14:04.054Z,26.55
2023-05-16T05:16:30.506Z,30.25
2023-05-16T05:18:57.050Z,28.77
2023-05-16T05:21:25.284Z,32.08
2023-05-16T05:23:51.811Z,27.35
2023-05-16T05:26:18.376Z,25.40
2023-05-16T05:28:53.831Z,25.95
2023-05-16T05:31:24.499Z,24.25
2023-05-16T05:33:51.011Z,25.92
2023-05-16T05:36:17.426Z,23.50
2023-05-16T05:38:43.870Z,23.50
2023-05-16T05:41:11.773Z,23.83
2023-05-16T05:43:38.461Z,20.27
2023-05-16T05:46:05.236Z,19.25
2023-05-16T05:48:32.407Z,18.63
2023-05-16T05:50:59.175Z,18.33
2023-05-16T05:53:25.720Z,18.00
2023-05-16T05:55:52.173Z,18.45
2023-05-16T05:58:18.734Z,15.30
2023-05-16T06:00:45.305Z,11.90
2023-05-16T06:03:11.783Z,14.80
2023-05-16T06:05:38.424Z,14.48
2023-05-16T06:08:04.930Z,11.90
2023-05-16T06:10:31.458Z,9.50
2023-05-16T06:12:57.841Z,10.18
2023-05-16T06:15:25.682Z,9.50
2023-05-16T06:17:52.665Z,7.30
2023-05-16T06:20:19.380Z,6.30
2023-05-16T06:22:45.842Z,5.70
2023-05-16T06:25:12.462Z,7.07
2023-05-16T06:27:38.901Z,5.43
2023-05-16T06:30:06.192Z,5.38
2023-05-16T06:32:32.694Z,5.22
2023-05-16T06:34:59.140Z,3.33
2023-05-16T06:37:26.219Z,3.45
2023-05-16T06:39:52.800Z,2.78
2023-05-16T06:42:20.433Z,4.30
2023-05-16T06:44:47.367Z,4.05
2023-05-16T06:47:13.979Z,7.43
2023-05-16T06:49:40.526Z,4.40
2023-05-16T06:52:07.109Z,2.92
2023-05-16T06:54:33.656Z,2.83
2023-05-16T06:57:00.131Z,4.63
2023-05-16T06:59:28.130Z,2.47
2023-05-16T07:01:54.910Z,4.88
2023-05-16T07:04:21.738Z,3.67
2023-05-16T07:06:48.309Z,2.95
2023-05-16T07:09:14.750Z,2.90
2023-05-16T07:11:41.218Z,3.28
2023-05-16T07:14:07.946Z,3.10
2023-05-16T07:16:34.498Z,2.78
2023-05-16T07:19:01.223Z,3.60
2023-05-16T07:21:27.928Z,3.60
2023-05-16T07:23:54.395Z,2.70
2023-05-16T07:26:23.083Z,4.68
2023-05-16T07:28:50.427Z,2.67
2023-05-16T07:31:17.273Z,3.80
2023-05-16T07:33:44.634Z,1.52
2023-05-16T07:36:16.714Z,3.72
2023-05-16T07:38:44.446Z,2.95
2023-05-16T07:41:11.014Z,3.25
2023-05-16T07:43:37.577Z,4.15
2023-05-16T07:46:05.458Z,2.20
2023-05-16T07:48:31.938Z,2.33
2023-05-16T07:50:58.433Z,2.75
2023-05-16T07:53:24.886Z,3.13
2023-05-16T07:55:51.507Z,6.47
2023-05-16T07:58:18.013Z,4.63
2023-05-16T08:00:44.473Z,5.50
2023-05-16T08:03:10.995Z,2.72
2023-05-16T08:05:37.783Z,5.15
2023-05-16T08:08:04.422Z,3.00
2023-05-16T08:10:31.084Z,2.88
2023-05-16T08:12:57.592Z,3.28
2023-05-16T08:15:25.790Z,3.47
2023-05-16T08:17:54.836Z,2.53
2023-05-16T08:20:21.344Z,5.57
2023-05-16T08:22:47.914Z,2.33
2023-05-16T08:25:14.369Z,2.00
2023-05-16T08:27:41.079Z,2.30
2023-05-16T08:30:08.209Z,2.90
2023-05-16T08:32:34.804Z,2.72
2023-05-16T08:35:01.404Z,3.15
2023-05-16T08:37:27.872Z,4.20
2023-05-16T08:39:54.334Z,4.28
2023-05-16T08:42:20.891Z,2.30
2023-05-16T08:44:47.372Z,2.92
2023-05-16T08:47:18.916Z,2.95
2023-05-16T08:49:48.026Z,2.53
2023-05-16T08:52:18.138Z,2.58
2023-05-16T08:54:50.405Z,0.85
2023-05-16T08:57:22.002Z,1.63
2023-05-16T08:59:48.831Z,1.55
2023-05-16T09:02:15.643Z,1.45
2023-05-16T09:04:43.227Z,0.63
2023-05-16T09:07:09.891Z,2.15
2023-05-16T09:09:36.383Z,1.85
2023-05-16T09:12:02.901Z,4.03
2023-05-16T09:14:29.470Z,2.75
2023-05-16T09:17:06.918Z,1.65
2023-05-16T09:19:41.457Z,0.88
2023-05-16T09:22:15.416Z,3.97
2023-05-16T09:24:43.484Z,2.22
2023-05-16T09:27:11.341Z,1.38
2023-05-16T09:29:41.178Z,1.92
2023-05-16T09:32:12.922Z,3.15
2023-05-16T09:34:49.426Z,2.22
2023-05-16T09:37:16.294Z,5.15
2023-05-16T09:39:49.704Z,1.42
2023-05-16T09:42:17.604Z,3.42
2023-05-16T09:44:48.757Z,1.88
2023-05-16T09:47:19.272Z,2.70
2023-05-16T09:49:46.666Z,3.33
2023-05-16T09:52:13.474Z,2.70
2023-05-16T09:54:40.190Z,2.22
2023-05-16T09:57:07.355Z,3.72
2023-05-16T09:59:38.451Z,2.83
2023-05-16T10:02:07.167Z,1.42
2023-05-16T10:04:38.171Z,1.38
2023-05-16T10:07:05.643Z,3.30
2023-05-16T10:09:33.329Z,2.00
2023-05-16T10:12:04.811Z,3.03
2023-05-16T10:14:37.815Z,2.75
2023-05-16T10:17:06.955Z,2.95
2023-05-16T10:19:36.506Z,3.95
2023-05-16T10:22:05.975Z,1.90
2023-05-16T10:24:48.300Z,3.08
2023-05-16T10:27:16.898Z,3.10
2023-05-16T10:29:54.264Z,3.83
2023-05-16T10:32:23.739Z,3.22
2023-05-16T10:34:51.025Z,3.03
2023-05-16T10:37:17.584Z,4.45
2023-05-16T10:39:44.328Z,3.55
2023-05-16T10:42:11.712Z,2.33
2023-05-16T10:44:39.074Z,3.70
2023-05-16T10:47:05.788Z,6.07
2023-05-16T10:49:32.354Z,3.40
2023-05-16T10:52:07.935Z,3.30
2023-05-16T10:54:52.294Z,4.28
2023-05-16T10:57:22.739Z,1.95
2023-05-16T10:59:50.696Z,5.22
2023-05-16T11:02:25.958Z,9.93
2023-05-16T11:04:53.314Z,3.97
2023-05-16T11:07:21.464Z,3.20
2023-05-16T11:10:10.756Z,4.60
2023-05-16T11:12:50.034Z,3.13
2023-05-16T11:18:10.298Z,4.35
2023-05-16T11:20:38.534Z,3.83
2023-05-16T11:23:17.051Z,3.35
2023-05-16T11:25:46.124Z,3.63
2023-05-16T11:28:16.642Z,4.95
2023-05-16T11:30:44.672Z,5.47
2023-05-16T11:33:12.874Z,3.80
2023-05-16T11:35:39.489Z,7.20
2023-05-16T11:38:05.948Z,3.53
2023-05-16T11:40:32.402Z,4.13
2023-05-16T11:43:00.886Z,6.97
2023-05-16T11:45:27.626Z,4.20
2023-05-16T11:47:54.352Z,7.80
2023-05-16T11:50:26.129Z,6.05
2023-05-16T11:52:54.092Z,6.57
2023-05-16T11:55:40.477Z,6.32
2023-05-16T11:58:08.169Z,7.25
2023-05-16T12:00:34.991Z,7.50
2023-05-16T12:03:05.071Z,6.68
2023-05-16T12:05:33.961Z,11.05
2023-05-16T12:08:02.540Z,7.57
2023-05-16T12:10:31.659Z,7.38
2023-05-16T12:12:58.293Z,4.85
2023-05-16T12:15:24.910Z,6.18
2023-05-16T12:17:51.966Z,6.97
2023-05-16T12:20:18.666Z,7.45
2023-05-16T12:22:46.159Z,8.13
2023-05-16T12:25:46.214Z,7.60
2023-05-16T12:28:14.168Z,9.13
2023-05-16T12:30:42.812Z,6.15
2023-05-16T12:33:11.433Z,5.00
2023-05-16T12:35:40.824Z,7.85
2023-05-16T12:38:08.901Z,8.00
2023-05-16T12:40:40.155Z,5.82
2023-05-16T12:43:20.326Z,6.70
2023-05-16T12:45:54.816Z,6.35
2023-05-16T12:48:22.152Z,9.32
2023-05-16T12:50:49.332Z,8.70
2023-05-16T12:53:17.118Z,8.63
2023-05-16T12:55:44.410Z,8.73
2023-05-16T12:58:11.664Z,8.48
2023-05-16T13:00:39.009Z,5.28
2023-05-16T13:03:06.378Z,7.63
2023-05-16T13:05:33.182Z,6.38
2023-05-16T13:08:00.114Z,6.43
2023-05-16T13:10:26.917Z,6.40
2023-05-16T13:12:53.751Z,3.67
2023-05-16T13:15:20.213Z,4.63
2023-05-16T13:17:48.449Z,7.70
2023-05-16T13:20:15.577Z,5.87
2023-05-16T13:22:43.535Z,6.63
2023-05-16T13:25:10.611Z,5.68
2023-05-16T13:27:37.155Z,7.75
2023-05-16T13:30:07.318Z,14.50
2023-05-16T13:32:33.919Z,10.35
2023-05-16T13:35:00.462Z,5.63
2023-05-16T13:37:27.211Z,5.50
2023-05-16T13:39:54.748Z,6.95
2023-05-16T13:42:21.548Z,8.30
2023-05-16T13:44:48.106Z,6.70
2023-05-16T13:47:14.590Z,8.55
2023-05-16T13:49:41.072Z,5.97
2023-05-16T13:52:08.096Z,7.63
2023-05-16T13:54:34.654Z,5.05
2023-05-16T13:57:02.079Z,6.85
2023-05-16T13:59:48.813Z,4.88
2023-05-16T14:02:15.500Z,4.68
2023-05-16T14:04:41.955Z,6.03
2023-05-16T14:07:08.411Z,6.32
2023-05-16T14:09:37.135Z,6.93
2023-05-16T14:12:04.074Z,7.50
2023-05-16T14:14:30.592Z,6.60
2023-05-16T14:16:57.100Z,6.85
2023-05-16T14:19:23.647Z,6.45
2023-05-16T14:21:50.174Z,5.72
2023-05-16T14:24:16.757Z,7.32
2023-05-16T14:26:43.252Z,5.10
2023-05-16T14:29:09.754Z,5.00
2023-05-16T14:31:36.581Z,7.28
2023-05-16T14:34:03.235Z,5.50
2023-05-16T14:36:29.930Z,4.53
2023-05-16T14:38:56.496Z,4.30
2023-05-16T14:41:23.000Z,4.50
2023-05-16T14:43:49.552Z,5.15
2023-05-16T14:46:16.049Z,6.85
2023-05-16T14:48:42.507Z,4.10
2023-05-16T14:51:09.010Z,6.22
2023-05-16T14:53:35.454Z,4.20
2023-05-16T14:56:03.674Z,3.30
2023-05-16T14:58:30.767Z,5.22
2023-05-16T15:00:57.355Z,6.40
2023-05-16T15:03:24.067Z,4.22
2023-05-16T15:05:50.656Z,5.63
2023-05-16T15:08:17.380Z,3.60
2023-05-16T15:10:43.835Z,3.63
2023-05-16T15:13:10.686Z,3.97
2023-05-16T15:15:38.708Z,4.57
2023-05-16T15:18:05.508Z,5.35
2023-05-16T15:20:32.069Z,4.28
2023-05-16T15:22:58.553Z,5.45
2023-05-16T15:25:25.020Z,4.38
2023-05-16T15:27:51.626Z,5.07
2023-05-16T15:30:18.190Z,7.18
2023-05-16T15:32:44.695Z,5.07
2023-05-16T15:35:11.294Z,3.58
2023-05-16T15:37:38.091Z,4.15
2023-05-16T15:40:05.736Z,6.03
2023-05-16T15:42:32.308Z,5.07
2023-05-16T15:44:58.854Z,3.67
2023-05-16T15:47:26.036Z,4.45
2023-05-16T15:49:52.819Z,2.97
2023-05-16T15:52:20.611Z,5.03
2023-05-16T15:54:48.878Z,5.00
2023-05-16T15:57:15.301Z,11.85
2023-05-16T15:59:41.804Z,6.35
2023-05-16T16:02:08.357Z,4.45
2023-05-16T16:04:35.039Z,4.68
2023-05-16T16:07:01.530Z,5.28
2023-05-16T16:09:28.014Z,3.88
2023-05-16T16:11:56.448Z,3.25
2023-05-16T16:14:24.354Z,6.72
2023-05-16T16:16:51.401Z,3.05
2023-05-16T16:19:18.018Z,4.25
2023-05-16T16:21:44.590Z,5.53
2023-05-16T16:24:11.092Z,4.65
2023-05-16T16:26:37.893Z,4.57
2023-05-16T16:29:05.674Z,4.60
2023-05-16T16:31:32.448Z,7.55
2023-05-16T16:33:58.964Z,5.35
2023-05-16T16:36:25.513Z,3.58
2023-05-16T16:38:52.011Z,7.30
2023-05-16T16:41:18.503Z,5.78
2023-05-16T16:43:45.032Z,3.10
2023-05-16T16:46:11.759Z,5.00
2023-05-16T16:48:38.346Z,5.07
2023-05-16T16:51:05.048Z,4.97
2023-05-16T16:53:32.342Z,4.15
2023-05-16T16:55:58.841Z,4.97
2023-05-16T16:58:25.446Z,4.35
2023-05-16T17:00:51.966Z,4.53
2023-05-16T17:03:18.697Z,3.13
2023-05-16T17:05:45.257Z,4.68
2023-05-16T17:08:12.127Z,3.72
2023-05-16T17:10:39.139Z,3.20
2023-05-16T17:13:10.085Z,2.80
2023-05-16T17:15:37.461Z,4.63
2023-05-16T17:18:07.153Z,3.97
2023-05-16T17:20:37.118Z,5.00
2023-05-16T17:23:03.721Z,3.60
2023-05-16T17:25:30.403Z,5.93
2023-05-16T17:27:57.137Z,3.65
2023-05-16T17:30:23.916Z,3.38
2023-05-16T17:32:50.416Z,4.47
2023-05-16T17:35:20.113Z,4.65
2023-05-16T17:37:47.578Z,4.38
2023-05-16T17:40:16.786Z,4.65
2023-05-16T17:42:44.544Z,2.88
2023-05-16T17:45:12.493Z,3.45
2023-05-16T17:47:39.443Z,3.92
2023-05-16T17:50:09.554Z,4.75
2023-05-16T17:52:39.257Z,2.85
2023-05-16T17:57:33.841Z,4.35
2023-05-16T18:00:00.684Z,4.78
2023-05-16T18:02:27.241Z,4.45
2023-05-16T18:04:53.708Z,4.32
2023-05-16T18:07:20.135Z,5.80
2023-05-16T18:09:46.607Z,5.93
2023-05-16T18:12:13.335Z,5.30
2023-05-16T18:14:40.018Z,6.85
2023-05-16T18:17:06.543Z,3.83
2023-05-16T18:19:33.126Z,5.55
2023-05-16T18:21:59.908Z,3.63
2023-05-16T18:24:26.423Z,3.00
2023-05-16T18:26:52.932Z,5.40
2023-05-16T18:29:19.497Z,8.88
2023-05-16T18:31:46.289Z,9.45
2023-05-16T18:34:12.886Z,4.70
2023-05-16T18:36:39.328Z,4.80
2023-05-16T18:39:05.850Z,3.65
2023-05-16T18:41:32.279Z,8.50
2023-05-16T18:43:58.742Z,5.22
2023-05-16T18:46:25.257Z,8.05
2023-05-16T18:48:51.803Z,3.30
2023-05-16T18:51:18.351Z,6.88
2023-05-16T18:53:47.557Z,4.35
2023-05-16T18:58:40.518Z,5.40
2023-05-16T19:01:06.976Z,3.65
2023-05-16T19:03:33.692Z,4.97
2023-05-16T19:06:00.286Z,4.20
2023-05-16T19:08:31.274Z,5.15
2023-05-16T19:11:03.364Z,3.60
2023-05-16T19:13:32.291Z,2.47
2023-05-16T19:15:58.725Z,5.32
2023-05-16T19:18:25.283Z,5.13
2023-05-16T19:20:51.921Z,4.97
2023-05-16T19:23:18.639Z,4.47
2023-05-16T19:25:49.017Z,4.70
2023-05-16T19:28:16.421Z,3.75
2023-05-16T19:30:42.977Z,4.18
2023-05-16T19:33:10.114Z,4.18
2023-05-16T19:35:36.657Z,4.22
2023-05-16T19:38:03.179Z,4.55
2023-05-16T19:40:30.064Z,5.13
2023-05-16T19:42:56.564Z,6.28
2023-05-16T19:45:23.136Z,5.10
2023-05-16T19:47:49.725Z,5.05
2023-05-16T19:50:16.417Z,4.15
2023-05-16T19:52:42.869Z,4.38
2023-05-16T19:55:10.399Z,4.43
2023-05-16T19:57:37.394Z,6.97
2023-05-16T20:00:05.273Z,4.82
2023-05-16T20:02:39.260Z,3.50
2023-05-16T20:05:06.507Z,4.32
2023-05-16T20:07:32.994Z,5.57
2023-05-16T20:09:59.540Z,3.00
2023-05-16T20:12:26.196Z,5.03
2023-05-16T20:14:52.694Z,6.47
2023-05-16T20:17:19.176Z,4.53
2023-05-16T20:19:46.568Z,4.70
2023-05-16T20:22:13.088Z,4.15
2023-05-16T20:24:39.659Z,2.50
2023-05-16T20:27:06.147Z,4.65
2023-05-16T20:29:33.742Z,4.60
2023-05-16T20:32:00.676Z,8.65
2023-05-16T20:34:27.877Z,4.18
2023-05-16T20:36:54.368Z,3.30
2023-05-16T20:39:20.832Z,3.67
2023-05-16T20:41:47.537Z,4.75
2023-05-16T20:44:15.221Z,7.63
2023-05-16T20:46:43.038Z,4.15
2023-05-16T20:49:09.537Z,4.20
2023-05-16T20:51:36.234Z,3.70
2023-05-16T20:54:02.689Z,6.72
2023-05-16T20:56:29.200Z,6.50
2023-05-16T20:58:55.649Z,4.30
2023-05-16T21:01:22.280Z,4.97
2023-05-16T21:03:48.802Z,6.57
2023-05-16T21:06:15.275Z,8.50
2023-05-16T21:08:41.841Z,4.60
2023-05-16T21:11:09.372Z,4.25
2023-05-16T21:13:35.888Z,3.25
2023-05-16T21:16:02.389Z,5.60
2023-05-16T21:18:28.972Z,5.28
2023-05-16T21:20:55.589Z,5.10
2023-05-16T21:23:22.143Z,4.40
2023-05-16T21:25:48.582Z,3.80
2023-05-16T21:28:15.068Z,4.60
2023-05-16T21:30:41.545Z,5.97
2023-05-16T21:33:08.064Z,7.30
2023-05-16T21:35:34.685Z,5.30
2023-05-16T21:38:01.178Z,7.38
2023-05-16T21:40:28.721Z,5.90
2023-05-16T21:42:55.283Z,10.15
2023-05-16T21:45:21.784Z,5.82
2023-05-16T21:47:48.559Z,8.75
2023-05-16T21:50:15.339Z,6.25
2023-05-16T21:52:42.007Z,3.95
2023-05-16T21:55:08.835Z,4.63
2023-05-16T21:57:35.515Z,4.90
2023-05-16T22:00:06.781Z,4.68
2023-05-16T22:02:34.540Z,4.30
2023-05-16T22:05:01.328Z,5.78
2023-05-16T22:07:31.491Z,4.22
2023-05-16T22:09:58.908Z,5.20
2023-05-16T22:12:26.393Z,4.78
2023-05-16T22:14:52.956Z,5.85
2023-05-16T22:17:20.123Z,2.83
2023-05-16T22:19:46.901Z,5.07
2023-05-16T22:22:13.544Z,5.38
2023-05-16T22:24:40.044Z,5.50
2023-05-16T22:27:06.799Z,6.45
2023-05-16T22:29:37.927Z,4.40
2023-05-16T22:32:08.699Z,4.68
2023-05-16T22:34:41.702Z,7.75
2023-05-16T22:37:09.142Z,5.22
2023-05-16T22:39:35.948Z,6.93
2023-05-16T22:42:03.495Z,8.32
2023-05-16T22:44:30.305Z,6.15
2023-05-16T22:46:56.882Z,6.47
2023-05-16T22:49:23.349Z,4.85
2023-05-16T22:51:49.890Z,5.78
2023-05-16T22:54:16.627Z,5.85
2023-05-16T22:56:43.320Z,5.63
2023-05-16T22:59:09.778Z,4.38
2023-05-16T23:01:37.312Z,5.97
2023-05-16T23:04:03.953Z,8.30
2023-05-16T23:06:32.294Z,4.00
2023-05-16T23:09:00.312Z,6.20
2023-05-16T23:11:26.848Z,7.00
2023-05-16T23:13:53.494Z,6.30
2023-05-16T23:16:20.037Z,6.65
2023-05-16T23:18:46.781Z,8.45
2023-05-16T23:21:13.409Z,4.35
2023-05-16T23:23:40.185Z,5.47
2023-05-16T23:26:06.735Z,4.95
2023-05-16T23:28:33.197Z,4.20
2023-05-16T23:30:59.624Z,6.53
2023-05-16T23:33:26.178Z,7.07
2023-05-16T23:35:52.637Z,4.18
2023-05-16T23:38:19.097Z,8.20
2023-05-16T23:40:45.816Z,4.60
2023-05-16T23:43:12.237Z,5.38
2023-05-16T23:45:38.710Z,11.60
2023-05-16T23:48:05.666Z,8.15
2023-05-16T23:50:32.243Z,7.60
2023-05-16T23:52:58.702Z,4.75
2023-05-16T23:55:25.303Z,6.82
2023-05-16T23:57:51.790Z,6.53
